Flight Track Log - Related Links

Times and Time Zones

All times are in EDT time to prevent confusion due to time zone crossing. See the N6ZQ flight status page for this flight to view local times or setup timezone preferences in your user account.

Time Position Orientation Groundspeed Altitude Reporting Facility
EDT Latitude Longitude Course Direction KTS MPH feet Rate Location/Type
Mon 02:57:00 PM 30.2966 -86.4238 120° Southeast  Level Estimated
Mon 02:58:00 PM 30.2778 -86.3859 120° Southeast  Level Estimated
Mon 02:59:00 PM 30.2590 -86.3481 120° Southeast  Level Estimated
Mon 03:00:00 PM 30.2402 -86.3102 120° Southeast  Level Estimated
Mon 03:01:00 PM 30.2214 -86.2724 120° Southeast  Level Estimated
Mon 03:02:00 PM 30.2026 -86.2346 120° Southeast  Level Estimated
Mon 03:03:00 PM 30.1837 -86.1968 120° Southeast  Level Estimated
Mon 03:04:00 PM 30.1649 -86.1590 120° Southeast  Level Estimated
Mon 03:05:00 PM 30.1460 -86.1212 120° Southeast  Level Estimated
Mon 03:06:00 PM 30.1269 -86.0830 120° Southeast  Level Estimated
Mon 03:07:00 PM 30.1078 -86.0448 120° Southeast  Level Estimated
Mon 03:08:00 PM 30.0887 -86.0066 120° Southeast  Level Estimated
Mon 03:09:00 PM 30.0695 -85.9684 120° Southeast  Level Estimated
Mon 03:10:00 PM 30.0504 -85.9302 120° Southeast  Level Estimated
Mon 03:11:00 PM 30.0312 -85.8921 120° Southeast  Level Estimated
Mon 03:12:00 PM 30.0120 -85.8539 120° Southeast  Level Estimated
Mon 03:13:00 PM 29.9928 -85.8158 120° Southeast  Level Estimated
Mon 03:14:00 PM 29.9736 -85.7777 120° Southeast  Level Estimated
Mon 03:15:00 PM 29.9549 -85.7406 120° Southeast  Level Estimated
Mon 03:16:00 PM 29.9362 -85.7036 120° Southeast  Level Estimated
Mon 03:17:00 PM 29.9175 -85.6666 120° Southeast  Level Estimated
Mon 03:17:52 PM 30.0650 -85.0214 120° Southeast 199 229 11,500  Level Jacksonville Center
Mon 03:18:00 PM 29.8988 -85.6295 120° Southeast  Level Estimated
Mon 03:18:52 PM 30.0533 -84.9658 104° East 205 236 11,500  Level Jacksonville Center
Mon 03:19:00 PM 29.8801 -85.5926 120° Southeast  Level Estimated
Mon 03:19:52 PM 30.0397 -84.9008 104° East 205 236 11,500  Level Jacksonville Center
Mon 03:20:00 PM 29.8613 -85.5556 120° Southeast  Level Estimated
Mon 03:20:52 PM 30.0261 -84.8381 104° East 200 230 11,500  Level Jacksonville Center
Mon 03:21:00 PM 29.8426 -85.5186 120° Southeast  Level Estimated
Mon 03:21:52 PM 30.0147 -84.7756 102° East 200 230 11,500  Level Jacksonville Center
Mon 03:22:00 PM 29.8238 -85.4816 120° Southeast  Level Estimated
Mon 03:22:52 PM 30.0008 -84.7131 104° East 200 230 11,500  Level Jacksonville Center
Mon 03:23:00 PM 29.8050 -85.4447 120° Southeast  Level Estimated
Mon 03:23:52 PM 29.9850 -84.6478 106° East 200 230 11,500  Level Jacksonville Center
Mon 03:24:52 PM 29.9714 -84.5853 104° East 200 230 11,500  Level Jacksonville Center
Mon 03:25:52 PM 29.9597 -84.5253 103° East 200 230 11,500  Level Jacksonville Center
Mon 03:26:52 PM 29.9458 -84.4603 104° East 200 230 11,500  Level Jacksonville Center
Mon 03:27:52 PM 29.9319 -84.4000 105° East 200 230 11,500  Level Jacksonville Center
Mon 03:28:52 PM 29.9181 -84.3400 105° East 200 230 11,500  Level Jacksonville Center
Mon 03:29:52 PM 29.9061 -84.2775 102° East 200 230 11,500  Level Jacksonville Center
Mon 03:30:52 PM 29.8922 -84.2175 105° East 200 230 11,500  Level Jacksonville Center
Mon 03:31:52 PM 29.8803 -84.1622 104° East 200 230 11,500  Level Jacksonville Center
Mon 03:32:52 PM 29.8683 -84.1022 103° East 195 224 11,500  Level Jacksonville Center
Mon 03:33:52 PM 29.8481 -84.0444 112° Southeast 195 224 11,500  Level Jacksonville Center
Mon 03:34:52 PM 29.8169 -83.9939 125° Southeast 195 224 11,500  Level Jacksonville Center
Mon 03:35:52 PM 29.7861 -83.9431 125° Southeast 195 224 11,500  Level Jacksonville Center
Mon 03:36:52 PM 29.7531 -83.8950 128° Southeast 195 224 11,500  Level Jacksonville Center
Mon 03:37:52 PM 29.7203 -83.8444 127° Southeast 195 224 11,500  Level Jacksonville Center
Mon 03:38:52 PM 29.6892 -83.7939 125° Southeast 200 230 11,500  Level Jacksonville Center
Mon 03:39:52 PM 29.6561 -83.7433 127° Southeast 200 230 11,500  Level Jacksonville Center
Mon 03:40:52 PM 29.6231 -83.6978 130° Southeast 200 230 11,500  Level Jacksonville Center
Mon 03:41:52 PM 29.5919 -83.6472 125° Southeast 200 230 11,500  Level Jacksonville Center
Mon 03:42:52 PM 29.5589 -83.5969 127° Southeast 200 230 11,500  Level Jacksonville Center
Mon 03:43:52 PM 29.5278 -83.5467 125° Southeast 200 230 11,500  Level Jacksonville Center
Mon 03:44:52 PM 29.4906 -83.5011 133° Southeast 200 230 11,500  Level Jacksonville Center
Mon 03:45:52 PM 29.4531 -83.4553 133° Southeast 195 224 11,500  Level Jacksonville Center
Mon 03:46:52 PM 29.4158 -83.4122 135° Southeast 195 224 11,500  Level Jacksonville Center
Mon 03:47:52 PM 29.3783 -83.3669 134° Southeast 195 224 11,500  Level Jacksonville Center
Mon 03:48:52 PM 29.3408 -83.3214 133° Southeast 195 224 11,500  Level Jacksonville Center
Mon 03:49:52 PM 29.3036 -83.2783 135° Southeast 195 224 11,500  Level Jacksonville Center
Mon 03:50:52 PM 29.2661 -83.2331 134° Southeast 195 224 11,500  Level Jacksonville Center
Mon 03:51:52 PM 29.2286 -83.1878 133° Southeast 195 224 11,500  Level Jacksonville Center
Mon 03:52:52 PM 29.1889 -83.1422 135° Southeast 195 224 11,500  Level Jacksonville Center
Mon 03:53:52 PM 29.1536 -83.0994 133° Southeast 195 224 11,500  Level Jacksonville Center
Mon 03:54:52 PM 29.1142 -83.0542 135° Southeast 195 224 11,500  Level Jacksonville Center
Mon 03:55:52 PM 29.0764 -83.0089 134° Southeast 195 224 11,500  Level Jacksonville Center
Mon 03:56:52 PM 29.0347 -82.9592 134° Southeast 195 224 11,500  Level Jacksonville Center
Mon 03:57:52 PM 28.9994 -82.9164 133° Southeast 195 224 11,500  Level Jacksonville Center
Mon 03:58:52 PM 28.9617 -82.8711 134° Southeast 195 224 11,500  Level Jacksonville Center
Mon 03:59:52 PM 28.9242 -82.8286 135° Southeast 195 224 11,500  Level Jacksonville Center
Mon 04:00:52 PM 28.8844 -82.7811 134° Southeast 195 224 11,500  Level Jacksonville Center
Mon 04:01:52 PM 28.8511 -82.7339 129° Southeast 195 224 11,500  Level Jacksonville Center
Mon 04:03:00 PM 28.8077 -82.6947 143° Southeast  Level FlightAware Approximate
Mon 04:10:00 PM 28.5326 -82.4703 147° Southeast  Level FlightAware Approximate
Mon 04:11:00 PM 28.4918 -82.4397 147° Southeast  Level FlightAware Approximate
Mon 04:12:00 PM 28.4520 -82.4075 144° Southeast  Level FlightAware Approximate
Mon 04:13:00 PM 28.4125 -82.3748 144° Southeast  Level FlightAware Approximate
Mon 04:14:00 PM 28.3729 -82.3422 144° Southeast  Level FlightAware Approximate
Mon 04:15:00 PM 28.3334 -82.3096 144° Southeast  Level FlightAware Approximate
Mon 04:16:00 PM 28.2938 -82.2771 144° Southeast  Level FlightAware Approximate
Mon 04:17:00 PM 28.2542 -82.2445 144° Southeast  Level FlightAware Approximate
Mon 04:18:00 PM 28.2146 -82.2120 144° Southeast  Level FlightAware Approximate

Login

Don't have an account? Register now (free) for customized features, flight alerts, and more!